Time;durP1;ratioP1;P1;durP2;ratioP2;P2;SDS_P1;SDS_P2;PMS_P1;PMS_P2;Temp;Humidity;BMP_temperature;BMP_pressure;BME280_temperature;BME280_humidity;BME280_pressure;Samples;Min_cycle;Max_cycle;Signal;HPM_P1;HPM_P2
2022/01/19 00:01:49;;;;;;;2.10;0.80;;;23.80;43.50;;;;;;5092083;28;20093;-61
2022/01/19 00:04:15;;;;;;;2.13;0.70;;;23.70;43.50;;;;;;5073334;22;20548;-61
2022/01/19 00:06:42;;;;;;;9.70;1.10;;;23.60;44.00;;;;;;5052946;28;20191;-59
2022/01/19 00:09:08;;;;;;;4.00;0.98;;;23.50;44.40;;;;;;5056532;28;20066;-58
2022/01/19 00:11:35;;;;;;;3.30;1.70;;;23.40;44.50;;;;;;5056920;28;20076;-55
2022/01/19 00:14:01;;;;;;;5.88;1.80;;;23.50;69.50;;;;;;5055763;28;20035;-61
2022/01/19 00:16:28;;;;;;;7.75;2.00;;;23.50;44.50;;;;;;5045270;28;20081;-63
2022/01/19 00:18:54;;;;;;;7.03;1.30;;;23.50;44.50;;;;;;5051759;28;20065;-63
2022/01/19 00:21:21;;;;;;;3.05;0.95;;;23.40;44.60;;;;;;5050485;28;20084;-58
2022/01/19 00:23:47;;;;;;;9.20;1.00;;;23.30;44.50;;;;;;5051631;28;20073;-59
2022/01/19 00:26:14;;;;;;;5.32;0.93;;;23.20;44.90;;;;;;5050481;28;20077;-56
2022/01/19 00:28:40;;;;;;;8.35;1.33;;;23.20;45.20;;;;;;5049880;28;20528;-60
2022/01/19 00:31:07;;;;;;;7.20;1.85;;;23.10;45.40;;;;;;5050063;28;20524;-58
2022/01/19 00:33:33;;;;;;;3.97;1.13;;;23.00;45.60;;;;;;5033592;28;20090;-60
2022/01/19 00:36:00;;;;;;;9.48;1.58;;;23.00;45.70;;;;;;5049732;28;20524;-57
2022/01/19 00:38:26;;;;;;;2.58;1.05;;;22.90;45.80;;;;;;5049837;28;20563;-61
2022/01/19 00:40:55;;;;;;;2.22;1.20;;;22.70;46.00;;;;;;5033940;28;20080;-60
2022/01/19 00:43:21;;;;;;;10.52;1.42;;;22.70;46.40;;;;;;5051477;28;20069;-61
2022/01/19 00:45:48;;;;;;;13.80;1.55;;;22.60;46.50;;;;;;5049334;28;20073;-57
2022/01/19 00:48:14;;;;;;;10.55;1.42;;;22.50;46.80;;;;;;5049551;28;20477;-61
2022/01/19 00:50:40;;;;;;;5.25;1.13;;;22.40;47.00;;;;;;5049144;28;20069;-58
2022/01/19 00:53:07;;;;;;;8.63;1.80;;;22.40;47.10;;;;;;5044386;28;20097;-61
2022/01/19 00:55:33;;;;;;;10.90;1.90;;;22.30;47.10;;;;;;5048072;28;20092;-63
2022/01/19 00:57:59;;;;;;;5.72;1.65;;;22.20;47.20;;;;;;5049191;28;20127;-63
2022/01/19 01:00:28;;;;;;;6.28;1.88;;;22.10;47.20;;;;;;5050413;28;20543;-62
2022/01/19 01:02:56;;;;;;;8.25;1.70;;;22.10;47.30;;;;;;5048041;28;20597;-63
2022/01/19 01:05:22;;;;;;;22.48;2.40;;;22.00;47.40;;;;;;5048785;28;20116;-60
2022/01/19 01:07:49;;;;;;;8.23;2.13;;;21.90;47.40;;;;;;5049328;28;20188;-58
2022/01/19 01:10:17;;;;;;;13.20;2.47;;;21.80;47.60;;;;;;5049410;28;20081;-58
2022/01/19 01:12:50;;;;;;;9.15;2.63;;;21.80;47.80;;;;;;5049155;28;20312;-64
2022/01/19 01:20:32;;;;;;;12.88;2.30;;;21.60;48.30;;;;;;5047845;28;20160;-62
2022/01/19 01:22:58;;;;;;;14.50;2.30;;;21.50;48.50;;;;;;5047721;28;20134;-62
2022/01/19 01:25:25;;;;;;;8.50;2.20;;;21.50;48.70;;;;;;5048533;28;20116;-61
2022/01/19 01:27:51;;;;;;;11.48;2.45;;;21.50;48.90;;;;;;5047714;28;20108;-62
2022/01/19 01:30:18;;;;;;;17.52;2.50;;;21.30;48.60;;;;;;5049925;28;20077;-60
2022/01/19 01:32:44;;;;;;;17.80;2.30;;;21.30;49.20;;;;;;5043329;28;20204;-63
2022/01/19 01:35:10;;;;;;;13.20;2.33;;;21.10;53.30;;;;;;5048595;28;20076;-62
2022/01/19 01:37:37;;;;;;;21.02;2.35;;;21.10;49.50;;;;;;5048705;28;20123;-60
2022/01/19 01:40:09;;;;;;;16.05;2.58;;;21.10;49.70;;;;;;5048066;28;20089;-64
2022/01/19 01:42:36;;;;;;;12.38;3.30;;;21.10;49.80;;;;;;5053286;28;20086;-62
2022/01/19 01:45:03;;;;;;;10.38;2.80;;;21.10;49.80;;;;;;5056452;28;20087;-61
2022/01/19 01:47:32;;;;;;;24.25;4.28;;;21.00;50.00;;;;;;5049844;28;20130;-60
2022/01/19 01:55:14;;;;;;;8.23;2.63;;;20.80;59.60;;;;;;5049048;28;20242;-60
2022/01/19 01:57:42;;;;;;;10.57;2.50;;;20.80;50.60;;;;;;5048477;28;20126;-61
2022/01/19 02:00:11;;;;;;;11.57;2.92;;;20.80;50.70;;;;;;5048352;28;20076;-63
2022/01/19 02:02:39;;;;;;;12.73;2.60;;;20.70;50.90;;;;;;5047741;28;20101;-59
2022/01/19 02:05:09;;;;;;;12.82;3.30;;;20.70;51.10;;;;;;5047872;28;20668;-64
2022/01/19 02:10:34;;;;;;;13.98;2.83;;;20.60;51.40;;;;;;5049469;28;20135;-61
2022/01/19 02:24:16;;;;;;;10.18;3.10;;;20.30;52.50;;;;;;5027063;28;20094;-60
2022/01/19 02:30:36;;;;;;;6.00;2.95;;;20.20;52.00;;;;;;5027611;28;20121;-62
2022/01/19 02:41:07;;;;;;;5.63;2.20;;;20.20;53.10;;;;;;5030835;28;20150;-64
2022/01/19 02:43:33;;;;;;;7.18;2.50;;;20.10;53.10;;;;;;5023239;28;20077;-61
2022/01/19 02:51:28;;;;;;;8.73;2.70;;;20.00;53.60;;;;;;5025524;28;20129;-64
2022/01/19 02:53:55;;;;;;;10.32;2.83;;;20.00;53.70;;;;;;5047249;28;20632;-60
2022/01/19 02:56:31;;;;;;;6.43;2.25;;;20.00;53.90;;;;;;5048785;28;20085;-63
2022/01/19 02:59:11;;;;;;;13.10;2.75;;;19.90;54.10;;;;;;5048015;28;20534;-62
2022/01/19 03:09:45;;;;;;;9.52;2.00;;;19.90;54.70;;;;;;5048954;28;20072;-61
2022/01/19 03:12:11;;;;;;;7.57;2.72;;;19.80;54.90;;;;;;5047697;28;20097;-62
2022/01/19 03:14:39;;;;;;;6.45;2.45;;;19.80;54.70;;;;;;5049479;28;20076;-60
2022/01/19 03:17:07;;;;;;;17.05;2.30;;;19.80;55.80;;;;;;5067300;28;20080;-60
2022/01/19 03:19:34;;;;;;;12.10;2.45;;;19.70;55.20;;;;;;5052349;28;20505;-58
2022/01/19 03:22:01;;;;;;;13.40;2.38;;;19.50;54.80;;;;;;5051165;28;20036;-61
2022/01/19 03:24:37;;;;;;;15.07;2.65;;;19.60;55.40;;;;;;5051455;28;20093;-62
2022/01/19 03:27:03;;;;;;;16.35;2.53;;;19.60;55.60;;;;;;5051285;28;20081;-61
2022/01/19 03:29:30;;;;;;;17.55;2.42;;;19.60;55.70;;;;;;5044072;28;20524;-60
2022/01/19 03:31:56;;;;;;;25.80;3.33;;;19.60;55.90;;;;;;5050994;28;20127;-58
2022/01/19 03:34:23;;;;;;;16.92;2.92;;;19.50;55.90;;;;;;5051592;28;20099;-61
2022/01/19 03:36:49;;;;;;;17.65;2.90;;;19.40;56.10;;;;;;5051760;28;20063;-59
2022/01/19 03:39:15;;;;;;;;;;;19.40;56.20;;;;;;5035100;28;20528;-61
2022/01/19 03:41:41;;;;;;;12.35;3.35;;;19.30;56.40;;;;;;5050874;28;19957;-59
2022/01/19 03:44:09;;;;;;;19.02;3.53;;;19.20;56.60;;;;;;5052465;28;20566;-60
2022/01/19 03:46:43;;;;;;;11.27;3.78;;;19.30;56.60;;;;;;5050466;28;20084;-62
2022/01/19 03:49:12;;;;;;;17.52;3.80;;;19.20;56.60;;;;;;5050146;28;20079;-61
2022/01/19 03:51:38;;;;;;;19.70;4.15;;;19.20;56.70;;;;;;5051015;28;20122;-62
2022/01/19 03:54:05;;;;;;;14.43;3.40;;;19.10;56.70;;;;;;5050575;28;20074;-59
2022/01/19 03:56:31;;;;;;;14.90;3.08;;;19.20;56.80;;;;;;5050397;28;20126;-63
2022/01/19 03:58:58;;;;;;;9.82;3.15;;;19.20;56.90;;;;;;5050481;28;20073;-60
2022/01/19 04:01:25;;;;;;;14.52;3.63;;;19.10;56.60;;;;;;5050060;28;20083;-60
2022/01/19 04:09:22;;;;;;;15.23;3.70;;;19.00;57.20;;;;;;5050868;28;20096;-64
2022/01/19 04:11:48;;;;;;;13.82;3.22;;;19.00;57.10;;;;;;5051388;28;20065;-60
2022/01/19 04:16:51;;;;;;;11.27;2.95;;;18.90;92.50;;;;;;5051354;28;20155;-62
2022/01/19 04:21:47;;;;;;;11.05;3.20;;;18.90;57.30;;;;;;5050614;28;20574;-59
2022/01/19 04:24:13;;;;;;;4.32;2.25;;;18.90;57.40;;;;;;5050236;28;20189;-63
2022/01/19 04:26:39;;;;;;;15.13;2.60;;;18.80;57.60;;;;;;5049125;28;20520;-59
2022/01/19 04:29:05;;;;;;;;;;;18.80;57.80;;;;;;5033772;28;20455;-64
2022/01/19 04:31:33;;;;;;;9.13;2.95;;;18.80;57.90;;;;;;5049625;28;20381;-59
2022/01/19 04:34:03;;;;;;;15.57;3.40;;;18.70;57.80;;;;;;5049662;28;20077;-58
2022/01/19 04:39:23;;;;;;;10.18;2.80;;;18.60;58.50;;;;;;5050420;28;20539;-61
2022/01/19 04:44:51;;;;;;;17.73;3.70;;;18.50;58.70;;;;;;5063985;28;20147;-63
2022/01/19 05:03:43;;;;;;;33.75;6.82;;;18.00;60.00;;;;;;5049447;28;20115;-62
2022/01/19 05:06:14;;;;;;;27.98;7.15;;;18.00;60.30;;;;;;5049842;28;20096;-62
2022/01/19 05:13:52;;;;;;;34.65;7.35;;;17.90;61.50;;;;;;5050383;28;20080;-60
2022/01/19 05:16:23;;;;;;;33.83;7.45;;;17.80;61.60;;;;;;5033090;28;20180;-62
2022/01/19 05:18:51;;;;;;;25.83;6.35;;;17.80;61.80;;;;;;5049101;28;20100;-60
2022/01/19 05:21:18;;;;;;;30.20;7.13;;;17.70;61.80;;;;;;5048689;28;20069;-63
2022/01/19 05:23:45;;;;;;;40.17;6.88;;;17.70;61.90;;;;;;5049494;28;20081;-64
2022/01/19 05:26:12;;;;;;;33.40;6.78;;;17.70;62.00;;;;;;5048933;28;20160;-64
2022/01/19 05:28:39;;;;;;;33.92;7.53;;;17.60;62.10;;;;;;5048055;28;20069;-64
2022/01/19 05:31:05;;;;;;;29.48;7.18;;;17.60;62.10;;;;;;5049761;28;20094;-65
2022/01/19 05:33:32;;;;;;;26.42;7.78;;;17.60;62.40;;;;;;5047538;28;20070;-62
2022/01/19 05:35:58;;;;;;;28.00;6.78;;;17.50;63.30;;;;;;5049510;28;20074;-61
2022/01/19 05:38:25;;;;;;;24.73;6.50;;;17.50;62.70;;;;;;5048977;28;20111;-61
2022/01/19 05:40:51;;;;;;;22.40;5.82;;;17.40;62.70;;;;;;5054218;28;20104;-63
2022/01/19 05:43:18;;;;;;;17.73;5.55;;;17.50;62.70;;;;;;5049553;28;20186;-62
2022/01/19 05:45:44;;;;;;;21.98;5.30;;;17.40;62.80;;;;;;5052354;28;20135;-62
2022/01/19 05:48:11;;;;;;;;;;;17.40;62.90;;;;;;5048562;28;20077;-63
2022/01/19 05:50:38;;;;;;;21.60;5.18;;;17.50;71.30;;;;;;5048461;28;19963;-64
2022/01/19 05:53:04;;;;;;;19.45;5.05;;;17.30;88.70;;;;;;5048277;28;20029;-62
2022/01/19 05:55:30;;;;;;;22.13;4.75;;;17.40;63.30;;;;;;5048322;28;20589;-63
2022/01/19 05:57:57;;;;;;;15.85;4.53;;;17.40;63.70;;;;;;5048326;28;20077;-62
2022/01/19 06:00:23;;;;;;;;;;;17.30;63.80;;;;;;5052848;28;20555;-59
2022/01/19 06:02:50;;;;;;;21.08;5.95;;;17.30;64.10;;;;;;5055045;28;19985;-61
2022/01/19 06:05:17;;;;;;;20.50;6.03;;;17.30;64.40;;;;;;5050407;28;20106;-62
2022/01/19 06:07:45;;;;;;;;;;;17.20;64.50;;;;;;5055264;28;20191;-65
2022/01/19 06:10:42;;;;;;;19.08;6.00;;;17.20;64.90;;;;;;5050112;28;19961;-62
2022/01/19 06:12:59;;;;;;;;;;;17.20;65.20;;;;;;5050079;28;20069;-61
2022/01/19 06:15:26;;;;;;;19.45;8.27;;;17.10;65.50;;;;;;5055487;28;19961;-62
2022/01/19 06:17:52;;;;;;;29.73;8.43;;;17.10;65.30;;;;;;5049017;28;20089;-62
2022/01/19 06:20:19;;;;;;;18.48;8.52;;;17.00;65.90;;;;;;5046154;28;20084;-61
2022/01/19 06:22:45;;;;;;;22.75;9.13;;;17.00;66.20;;;;;;5049580;28;20143;-60
2022/01/19 06:25:11;;;;;;;;;;;16.90;66.40;;;;;;5048096;28;20092;-62
2022/01/19 06:27:38;;;;;;;15.00;6.15;;;16.90;66.60;;;;;;5049190;28;20000;-62
2022/01/19 06:30:05;;;;;;;12.32;6.30;;;16.90;66.90;;;;;;5048423;28;20079;-62
2022/01/19 06:32:31;;;;;;;10.15;4.97;;;16.90;67.30;;;;;;5047820;28;20411;-62
2022/01/19 06:34:57;;;;;;;;;;;16.80;67.50;;;;;;5048340;28;20080;-62
2022/01/19 06:37:24;;;;;;;10.27;3.85;;;16.80;68.00;;;;;;5046751;28;19957;-62
2022/01/19 06:39:52;;;;;;;10.00;3.72;;;16.80;68.40;;;;;;5049890;28;20082;-61
2022/01/19 06:42:18;;;;;;;6.30;3.33;;;16.70;68.70;;;;;;5047533;28;20523;-65
2022/01/19 06:44:45;;;;;;;8.38;3.95;;;16.70;69.10;;;;;;5048126;28;20097;-64
2022/01/19 06:47:11;;;;;;;8.70;3.17;;;15.50;80.10;;;;;;5047790;28;20077;-62
2022/01/19 06:49:37;;;;;;;;;;;16.60;70.10;;;;;;5047339;28;20501;-62
2022/01/19 06:52:04;;;;;;;8.13;3.30;;;16.60;70.40;;;;;;5047176;28;19972;-63
2022/01/19 06:54:31;;;;;;;9.80;3.53;;;16.60;70.80;;;;;;5047244;28;20073;-64
2022/01/19 06:56:57;;;;;;;6.32;3.45;;;16.60;71.10;;;;;;5047608;28;20100;-62
2022/01/19 06:59:24;;;;;;;11.32;3.08;;;16.50;71.50;;;;;;5046886;28;20073;-62
2022/01/19 07:01:50;;;;;;;9.45;3.13;;;16.50;71.20;;;;;;5047624;28;20101;-62
2022/01/19 07:04:17;;;;;;;;;;;16.40;72.30;;;;;;5047203;28;20116;-64
2022/01/19 07:06:43;;;;;;;6.82;3.13;;;16.40;72.70;;;;;;5049114;28;20327;-61
2022/01/19 07:09:10;;;;;;;;;;;16.30;72.90;;;;;;5053186;28;20127;-62
2022/01/19 07:11:36;;;;;;;8.68;2.88;;;16.30;73.30;;;;;;5047023;28;19957;-59
2022/01/19 07:14:03;;;;;;;;;;;16.30;73.90;;;;;;5048345;28;20127;-59
2022/01/19 07:16:30;;;;;;;27.35;4.10;;;16.20;74.50;;;;;;5046977;28;19957;-62
2022/01/19 07:18:56;;;;;;;26.83;4.00;;;16.30;74.90;;;;;;5049303;28;20084;-59
2022/01/19 07:21:22;;;;;;;;;;;16.30;75.50;;;;;;5048300;28;20534;-60
2022/01/19 07:23:49;;;;;;;8.52;2.85;;;16.30;75.60;;;;;;5046881;28;19977;-60
2022/01/19 07:26:15;;;;;;;;;;;16.20;75.70;;;;;;5030173;28;20133;-60
2022/01/19 07:28:41;;;;;;;6.82;2.70;;;16.20;76.20;;;;;;5047998;28;19968;-60
2022/01/19 07:31:07;;;;;;;;;;;16.20;76.90;;;;;;5048625;28;20074;-63
2022/01/19 07:33:34;;;;;;;7.35;2.63;;;16.20;77.30;;;;;;5047118;28;20461;-60
2022/01/19 07:36:00;;;;;;;10.50;2.30;;;16.20;77.50;;;;;;5046559;28;20086;-62
2022/01/19 07:38:27;;;;;;;7.65;2.30;;;16.20;77.60;;;;;;5045533;28;20074;-59
2022/01/19 07:40:54;;;;;;;5.57;2.40;;;16.20;77.80;;;;;;5046435;28;20074;-60
2022/01/19 07:43:20;;;;;;;6.72;2.55;;;16.20;77.90;;;;;;5048652;28;20069;-58
2022/01/19 07:45:46;;;;;;;;;;;16.20;78.00;;;;;;5048927;28;20176;-60
2022/01/19 07:48:13;;;;;;;5.82;1.85;;;16.10;78.30;;;;;;5046762;28;19997;-61
2022/01/19 07:50:40;;;;;;;6.38;2.20;;;16.10;78.80;;;;;;5047020;28;20753;-59
2022/01/19 07:53:07;;;;;;;3.22;1.85;;;16.10;79.20;;;;;;5030314;28;20075;-58
2022/01/19 07:55:34;;;;;;;3.22;1.63;;;16.10;79.30;;;;;;5046355;28;20514;-60
2022/01/19 07:58:01;;;;;;;8.10;2.10;;;16.10;79.50;;;;;;5047657;28;20077;-62
2022/01/19 08:00:29;;;;;;;5.22;1.80;;;16.50;79.20;;;;;;5046175;28;20103;-60
2022/01/19 08:02:55;;;;;;;3.33;1.70;;;16.10;79.60;;;;;;5049320;28;20474;-60
2022/01/19 08:05:22;;;;;;;;;;;16.10;79.60;;;;;;5050753;28;20616;-59
2022/01/19 08:07:48;;;;;;;6.70;1.90;;;16.10;79.60;;;;;;5051507;28;19958;-61
2022/01/19 08:10:14;;;;;;;;;;;16.10;79.50;;;;;;5050672;28;20532;-60
2022/01/19 08:12:40;;;;;;;2.72;1.60;;;16.10;79.30;;;;;;5049392;28;19980;-61
2022/01/19 08:15:07;;;;;;;6.85;1.67;;;16.20;79.20;;;;;;5050549;28;20084;-59
2022/01/19 08:17:34;;;;;;;4.72;1.35;;;16.20;79.00;;;;;;5051704;28;20223;-62
2022/01/19 08:20:00;;;;;;;;;;;16.20;79.10;;;;;;5050065;28;20069;-59
2022/01/19 08:22:27;;;;;;;4.20;1.60;;;16.20;78.80;;;;;;5050873;28;20434;-58
2022/01/19 08:24:53;;;;;;;;;;;16.20;78.80;;;;;;5049288;28;20108;-58
2022/01/19 08:27:19;;;;;;;3.28;1.20;;;16.10;78.80;;;;;;5049647;28;20047;-62
2022/01/19 08:29:45;;;;;;;5.43;1.58;;;16.10;78.20;;;;;;5049941;28;20585;-58
2022/01/19 08:32:11;;;;;;;;;;;16.10;78.90;;;;;;5050457;28;20524;-62
2022/01/19 08:34:38;;;;;;;4.95;1.83;;;16.10;79.00;;;;;;5049397;28;19964;-62
2022/01/19 08:37:04;;;;;;;;;;;16.00;79.00;;;;;;5050834;28;20078;-61
2022/01/19 08:39:30;;;;;;;5.18;1.60;;;16.00;79.10;;;;;;5049731;28;19963;-59
2022/01/19 08:41:56;;;;;;;;;;;16.00;79.10;;;;;;5049802;28;20582;-59
2022/01/19 08:44:23;;;;;;;2.28;1.67;;;15.90;79.10;;;;;;5051261;28;19980;-61
2022/01/19 08:46:50;;;;;;;6.75;2.00;;;15.90;78.80;;;;;;5051612;28;20069;-60
2022/01/19 08:49:16;;;;;;;;;;;15.90;79.30;;;;;;5049407;28;20078;-60
2022/01/19 08:51:42;;;;;;;8.82;3.22;;;15.80;79.30;;;;;;5049735;28;19957;-58
2022/01/19 08:54:09;;;;;;;;;;;15.80;79.40;;;;;;5049668;28;20078;-58
2022/01/19 08:56:36;;;;;;;6.00;3.40;;;15.70;79.30;;;;;;5049978;28;19961;-61
2022/01/19 08:59:03;;;;;;;7.53;3.60;;;15.70;79.30;;;;;;5049516;28;20638;-57
2022/01/19 09:01:30;;;;;;;17.38;4.47;;;15.70;79.80;;;;;;5049082;28;20082;-60
2022/01/19 09:03:56;;;;;;;;;;;15.70;79.90;;;;;;5049230;28;20116;-60
2022/01/19 09:06:22;;;;;;;9.85;4.75;;;15.70;79.60;;;;;;5048127;28;20003;-59
2022/01/19 09:08:48;;;;;;;;;;;;;;;;;;5049656;28;20065;-61
2022/01/19 09:11:14;;;;;;;11.43;5.00;;;16.70;91.40;;;;;;5048997;28;20392;-58
2022/01/19 09:13:41;;;;;;;;;;;15.70;79.60;;;;;;5051321;28;20073;-59
2022/01/19 09:16:07;;;;;;;15.07;5.88;;;15.70;79.60;;;;;;5050001;28;19965;-58
2022/01/19 09:18:34;;;;;;;7.82;5.75;;;15.60;80.00;;;;;;5049843;28;21163;-59
2022/01/19 09:21:00;;;;;;;9.13;6.13;;;15.50;80.00;;;;;;5049690;28;20459;-62
2022/01/19 09:23:26;;;;;;;;;;;15.40;80.30;;;;;;5049917;28;20101;-58
2022/01/19 09:25:53;;;;;;;7.30;4.82;;;15.30;80.80;;;;;;5049338;28;20031;-62
2022/01/19 09:28:19;;;;;;;;;;;15.30;81.50;;;;;;5049153;28;20094;-63
2022/01/19 09:30:45;;;;;;;6.50;3.67;;;15.30;80.90;;;;;;5048815;28;20011;-58
2022/01/19 09:33:19;;;;;;;11.70;4.13;;;15.30;81.00;;;;;;5048589;28;20077;-60
2022/01/19 09:38:29;;;;;;;11.95;3.88;;;15.20;81.00;;;;;;5049288;28;20435;-55
2022/01/19 09:40:56;;;;;;;7.20;3.70;;;15.20;81.20;;;;;;5049559;28;20109;-60
2022/01/19 09:43:23;;;;;;;11.00;4.25;;;15.20;81.30;;;;;;5047785;28;20069;-60
2022/01/19 09:46:00;;;;;;;10.00;3.78;;;15.10;81.40;;;;;;5048931;28;20539;-57
2022/01/19 09:48:28;;;;;;;11.23;4.40;;;15.10;81.50;;;;;;5048939;28;20077;-62
2022/01/19 09:50:56;;;;;;;11.05;4.32;;;15.00;81.50;;;;;;5048080;28;20505;-58
2022/01/19 09:53:23;;;;;;;9.23;3.67;;;15.00;81.90;;;;;;5048130;28;20078;-58
2022/01/19 09:55:50;;;;;;;9.68;3.10;;;14.90;82.30;;;;;;5048989;28;20092;-59
2022/01/19 09:58:18;;;;;;;11.55;3.42;;;14.90;82.60;;;;;;5048199;28;20081;-58
2022/01/19 10:00:45;;;;;;;7.03;3.15;;;14.90;82.90;;;;;;5046398;28;20093;-58
2022/01/19 10:03:18;;;;;;;8.00;2.78;;;15.00;83.60;;;;;;5048220;28;20843;-62
2022/01/19 10:06:05;;;;;;;8.55;3.08;;;15.00;83.10;;;;;;5047815;28;20180;-59
2022/01/19 10:08:33;;;;;;;8.80;3.35;;;14.90;82.70;;;;;;5048032;28;20069;-60
2022/01/19 10:11:17;;;;;;;8.80;2.88;;;14.90;83.40;;;;;;5047300;28;20073;-59
2022/01/19 10:17:02;;;;;;;10.77;2.90;;;14.90;83.90;;;;;;5048150;28;20581;-59
2022/01/19 10:19:28;;;;;;;11.88;2.92;;;14.90;83.90;;;;;;5048481;28;20565;-63
2022/01/19 10:21:58;;;;;;;7.50;3.08;;;14.90;84.30;;;;;;5047850;28;20081;-58
2022/01/19 10:24:51;;;;;;;8.32;3.72;;;14.90;84.10;;;;;;5046664;28;20203;-60
2022/01/19 10:27:29;;;;;;;15.80;3.75;;;14.90;83.80;;;;;;5048056;28;20161;-60
2022/01/19 10:29:56;;;;;;;10.10;3.60;;;14.70;84.00;;;;;;5048206;28;20069;-61
2022/01/19 10:32:25;;;;;;;8.80;3.50;;;14.70;85.10;;;;;;5048623;28;20077;-59
2022/01/19 10:34:53;;;;;;;12.85;3.72;;;14.70;84.00;;;;;;5047827;28;20100;-60
2022/01/19 10:37:27;;;;;;;9.80;3.65;;;14.80;85.40;;;;;;5049740;28;20485;-59
2022/01/19 10:39:57;;;;;;;12.00;4.07;;;14.70;85.20;;;;;;5048768;28;20652;-59
2022/01/19 10:42:31;;;;;;;11.13;3.20;;;14.60;84.70;;;;;;5046525;28;20097;-63
2022/01/19 10:45:01;;;;;;;11.50;4.10;;;14.60;85.50;;;;;;5047319;28;20673;-58
2022/01/19 10:47:48;;;;;;;8.25;3.70;;;14.60;85.30;;;;;;5047453;28;20096;-59
2022/01/19 10:50:28;;;;;;;17.52;4.55;;;14.60;85.10;;;;;;5047008;28;20223;-59
2022/01/19 10:52:58;;;;;;;11.13;3.97;;;14.50;85.80;;;;;;5040920;28;20590;-59
2022/01/19 10:55:27;;;;;;;12.07;3.55;;;14.50;86.20;;;;;;5014566;28;20112;-60
2022/01/19 10:57:54;;;;;;;10.10;3.67;;;14.50;86.30;;;;;;5048873;28;20082;-60
2022/01/19 11:00:30;;;;;;;10.15;4.45;;;14.50;86.00;;;;;;5046603;28;20097;-59
2022/01/19 11:03:12;;;;;;;11.48;4.18;;;14.40;86.50;;;;;;5045688;28;20200;-58
2022/01/19 11:05:59;;;;;;;11.60;4.20;;;14.40;87.00;;;;;;5046857;28;20100;-59
2022/01/19 11:08:28;;;;;;;7.57;4.30;;;14.30;87.00;;;;;;5030317;28;20156;-62
2022/01/19 11:10:57;;;;;;;19.50;4.25;;;14.30;87.50;;;;;;5045489;28;20685;-60
2022/01/19 11:13:31;;;;;;;9.98;4.47;;;14.30;87.80;;;;;;5046735;28;20069;-58
2022/01/19 11:16:00;;;;;;;12.38;4.22;;;14.20;87.80;;;;;;5048673;28;20143;-59
2022/01/19 11:18:29;;;;;;;9.60;4.32;;;14.20;87.70;;;;;;5048450;28;20077;-57
2022/01/19 11:21:01;;;;;;;13.13;4.35;;;14.10;87.60;;;;;;5047584;28;20470;-58
2022/01/19 11:23:39;;;;;;;11.55;4.38;;;14.10;88.20;;;;;;5046896;28;20131;-58
2022/01/19 11:26:11;;;;;;;11.60;4.78;;;14.20;88.40;;;;;;5049630;28;20543;-62
2022/01/19 11:28:44;;;;;;;13.38;4.18;;;14.20;88.20;;;;;;5047089;28;20111;-61
2022/01/19 11:31:10;;;;;;;7.57;4.43;;;;;;;;;;5047735;28;20074;-62
2022/01/19 11:33:43;;;;;;;;;;;14.10;87.40;;;;;;5047331;28;20071;-59
2022/01/19 11:36:19;;;;;;;13.68;4.68;;;;;;;;;;5047314;28;19957;-58
2022/01/19 11:39:06;;;;;;;8.90;4.57;;;14.00;88.50;;;;;;5049816;28;20507;-60
2022/01/19 11:41:37;;;;;;;11.38;4.68;;;14.00;88.60;;;;;;5050491;28;20093;-62
2022/01/19 11:44:05;;;;;;;9.38;5.22;;;14.00;88.60;;;;;;5033338;28;20097;-62
2022/01/19 11:46:32;;;;;;;13.07;5.25;;;14.00;91.50;;;;;;5051214;28;20088;-58
2022/01/19 11:49:04;;;;;;;16.63;6.00;;;13.90;87.90;;;;;;5051056;28;20155;-60
2022/01/19 11:51:39;;;;;;;10.50;4.50;;;13.90;88.80;;;;;;5050913;28;20066;-59
2022/01/19 11:54:08;;;;;;;15.43;4.95;;;13.90;88.90;;;;;;5051098;28;20458;-61
2022/01/19 11:57:04;;;;;;;14.68;4.93;;;13.90;89.00;;;;;;5050424;28;20075;-63
2022/01/19 11:59:50;;;;;;;13.25;5.53;;;14.00;89.00;;;;;;5041943;28;20097;-60
2022/01/19 12:02:23;;;;;;;13.00;5.10;;;13.90;89.00;;;;;;5049365;28;20192;-59
2022/01/19 12:04:54;;;;;;;10.30;5.10;;;13.80;88.80;;;;;;5050065;28;20105;-59
2022/01/19 12:07:39;;;;;;;12.82;5.05;;;13.90;89.90;;;;;;5050687;28;20069;-57
2022/01/19 12:10:15;;;;;;;13.93;5.45;;;13.80;89.60;;;;;;5050041;28;20101;-58
2022/01/19 12:13:07;;;;;;;13.77;5.38;;;13.80;89.90;;;;;;5049915;28;20114;-57
2022/01/19 12:16:00;;;;;;;11.30;4.80;;;13.70;90.00;;;;;;5050738;28;20619;-58
2022/01/19 12:18:57;;;;;;;15.13;5.32;;;13.70;90.20;;;;;;5053201;28;20081;-58
2022/01/19 12:21:32;;;;;;;12.88;5.60;;;13.80;90.10;;;;;;4954481;28;20492;-61
2022/01/19 12:24:36;;;;;;;19.10;5.72;;;13.70;90.00;;;;;;4969355;28;20117;-58
2022/01/19 12:27:07;;;;;;;13.25;5.35;;;13.70;90.00;;;;;;4986058;28;20067;-58
2022/01/19 12:29:34;;;;;;;11.25;5.93;;;13.70;90.00;;;;;;4969399;28;20080;-59
2022/01/19 12:32:21;;;;;;;13.27;5.90;;;13.60;89.80;;;;;;4969568;28;20162;-62
2022/01/19 12:34:54;;;;;;;15.48;5.70;;;13.50;90.10;;;;;;4950335;28;20142;-60
2022/01/19 12:37:39;;;;;;;14.98;6.07;;;13.50;90.50;;;;;;4969196;28;20526;-60
2022/01/19 12:40:29;;;;;;;19.30;7.40;;;13.50;90.40;;;;;;4985261;28;20106;-62
2022/01/19 12:42:58;;;;;;;14.63;6.75;;;13.40;90.30;;;;;;4969173;28;20628;-59
2022/01/19 12:45:27;;;;;;;21.42;8.82;;;13.30;90.50;;;;;;4986018;28;20194;-60
2022/01/19 12:47:55;;;;;;;20.75;8.75;;;13.30;90.60;;;;;;4969968;28;20521;-58
2022/01/19 12:50:21;;;;;;;18.77;9.40;;;13.30;90.70;;;;;;4985984;28;20087;-58
2022/01/19 12:53:12;;;;;;;25.23;8.88;;;13.30;91.00;;;;;;4968869;28;20134;-58
2022/01/19 12:55:41;;;;;;;19.33;8.77;;;13.40;91.00;;;;;;4969270;28;20183;-59
2022/01/19 12:58:47;;;;;;;23.02;9.80;;;13.40;90.50;;;;;;5018087;28;20092;-60
2022/01/19 13:01:14;;;;;;;21.48;8.45;;;13.40;91.00;;;;;;4989084;28;20087;-62
2022/01/19 13:03:44;;;;;;;18.35;6.90;;;13.40;91.00;;;;;;4988149;28;20114;-59
2022/01/19 13:06:14;;;;;;;13.98;6.30;;;13.40;90.90;;;;;;4988325;28;20078;-60
2022/01/19 13:08:50;;;;;;;10.32;6.28;;;13.40;90.60;;;;;;4972682;28;20067;-62
2022/01/19 13:11:26;;;;;;;14.13;6.00;;;13.40;90.50;;;;;;4987929;28;20545;-57
2022/01/19 13:14:02;;;;;;;18.73;5.75;;;13.40;90.40;;;;;;4971749;28;20079;-62
2022/01/19 13:16:31;;;;;;;11.18;4.63;;;13.40;90.40;;;;;;4973512;28;20143;-58
2022/01/19 13:19:13;;;;;;;10.40;4.63;;;13.40;90.40;;;;;;4973009;28;20165;-62
2022/01/19 13:21:41;;;;;;;12.25;4.20;;;13.40;90.40;;;;;;4988345;28;20142;-60
2022/01/19 13:24:27;;;;;;;9.18;4.13;;;13.30;90.40;;;;;;4983921;22;20095;-57
2022/01/19 13:26:58;;;;;;;6.45;3.80;;;13.30;90.40;;;;;;5036414;28;20088;-60
2022/01/19 13:29:37;;;;;;;8.65;3.85;;;13.30;90.70;;;;;;5048355;28;20390;-58
2022/01/19 13:32:08;;;;;;;5.88;3.60;;;13.30;90.40;;;;;;5048998;28;20405;-60
2022/01/19 13:34:52;;;;;;;9.30;4.30;;;13.30;90.40;;;;;;5051954;28;20065;-59
2022/01/19 13:37:19;;;;;;;11.93;4.90;;;13.30;90.40;;;;;;5048281;28;20074;-57
2022/01/19 13:40:03;;;;;;;9.27;4.80;;;13.20;90.60;;;;;;5048350;28;20618;-56
2022/01/19 13:42:52;;;;;;;13.68;4.85;;;13.30;90.50;;;;;;5049939;28;20184;-57
2022/01/19 13:46:13;;;;;;;9.98;5.22;;;13.30;90.60;;;;;;5047665;28;20089;-57
2022/01/19 13:50:56;;;;;;;15.77;5.85;;;13.20;90.60;;;;;;5048814;28;20081;-59
2022/01/19 13:53:40;;;;;;;16.08;6.78;;;13.20;90.70;;;;;;5048376;28;20070;-60
2022/01/19 13:56:13;;;;;;;14.10;5.28;;;13.30;90.70;;;;;;5046484;28;20074;-60
2022/01/19 13:59:09;;;;;;;18.88;5.72;;;13.20;90.60;;;;;;5048639;28;20411;-59
2022/01/19 14:01:49;;;;;;;17.42;6.07;;;13.30;90.70;;;;;;5042090;28;20140;-62
2022/01/19 14:04:16;;;;;;;12.57;4.82;;;13.20;90.60;;;;;;5048429;28;20548;-59
2022/01/19 14:06:48;;;;;;;13.18;5.20;;;13.20;90.50;;;;;;5049075;28;20073;-60
2022/01/19 14:09:15;;;;;;;14.48;3.97;;;13.20;90.60;;;;;;5047257;28;20069;-62
2022/01/19 14:11:45;;;;;;;;;;;13.10;90.70;;;;;;5048415;28;20570;-59
2022/01/19 14:14:13;;;;;;;7.13;3.45;;;13.20;90.90;;;;;;5047167;28;20000;-60
2022/01/19 14:16:48;;;;;;;14.05;3.72;;;13.20;90.90;;;;;;5048310;28;20527;-60
2022/01/19 14:19:14;;;;;;;20.50;3.92;;;13.10;91.00;;;;;;5048295;28;20550;-59
2022/01/19 14:21:58;;;;;;;;;;;13.20;91.20;;;;;;5048662;28;20134;-62
2022/01/19 14:24:26;;;;;;;10.73;3.10;;;13.20;91.20;;;;;;5047704;28;20034;-62
2022/01/19 14:26:58;;;;;;;7.55;3.38;;;13.30;91.10;;;;;;5030750;28;20085;-59
2022/01/19 14:29:26;;;;;;;8.38;2.75;;;13.20;91.00;;;;;;5048100;28;20081;-59
2022/01/19 14:31:54;;;;;;;7.47;2.80;;;13.20;91.00;;;;;;5074845;22;20120;-60
2022/01/19 14:34:42;;;;;;;13.18;2.80;;;13.20;91.10;;;;;;5070563;28;20443;-59
2022/01/19 14:37:09;;;;;;;11.77;2.95;;;13.20;91.10;;;;;;5068178;28;20130;-62
2022/01/19 14:39:51;;;;;;;12.00;2.78;;;13.10;91.20;;;;;;5071552;28;20131;-58
2022/01/19 14:42:20;;;;;;;5.88;2.75;;;13.10;91.40;;;;;;5069265;28;20081;-58